sensor_id;sensor_type;location;lat;lon;timestamp;P1;durP1;ratioP1;P2;durP2;ratioP2
74528;SDS011;63009;52.584;5.932;2022-12-29T00:01:04;8.07;;;3.53;;
74528;SDS011;63009;52.584;5.932;2022-12-29T00:03:29;7.60;;;3.70;;
74528;SDS011;63009;52.584;5.932;2022-12-29T00:05:55;8.20;;;3.90;;
74528;SDS011;63009;52.584;5.932;2022-12-29T00:08:21;7.82;;;3.55;;
74528;SDS011;63009;52.584;5.932;2022-12-29T00:11:03;8.38;;;3.83;;
74528;SDS011;63009;52.584;5.932;2022-12-29T00:13:29;8.10;;;3.63;;
74528;SDS011;63009;52.584;5.932;2022-12-29T00:16:13;8.15;;;4.05;;
74528;SDS011;63009;52.584;5.932;2022-12-29T00:18:38;7.77;;;3.30;;
74528;SDS011;63009;52.584;5.932;2022-12-29T00:21:03;6.97;;;3.07;;
74528;SDS011;63009;52.584;5.932;2022-12-29T00:23:47;8.50;;;3.50;;
74528;SDS011;63009;52.584;5.932;2022-12-29T00:26:31;8.38;;;3.53;;
74528;SDS011;63009;52.584;5.932;2022-12-29T00:29:15;8.25;;;3.67;;
74528;SDS011;63009;52.584;5.932;2022-12-29T00:31:59;9.95;;;3.60;;
74528;SDS011;63009;52.584;5.932;2022-12-29T00:34:43;9.20;;;3.55;;
74528;SDS011;63009;52.584;5.932;2022-12-29T00:37:27;7.57;;;2.60;;
74528;SDS011;63009;52.584;5.932;2022-12-29T00:40:12;7.25;;;3.00;;
74528;SDS011;63009;52.584;5.932;2022-12-29T00:42:56;7.70;;;2.72;;
74528;SDS011;63009;52.584;5.932;2022-12-29T00:45:41;7.40;;;3.30;;
74528;SDS011;63009;52.584;5.932;2022-12-29T00:48:06;6.65;;;2.42;;
74528;SDS011;63009;52.584;5.932;2022-12-29T00:50:32;7.23;;;3.07;;
74528;SDS011;63009;52.584;5.932;2022-12-29T00:52:57;7.00;;;2.50;;
74528;SDS011;63009;52.584;5.932;2022-12-29T00:55:22;8.13;;;2.83;;
74528;SDS011;63009;52.584;5.932;2022-12-29T00:57:47;7.37;;;2.50;;
74528;SDS011;63009;52.584;5.932;2022-12-29T01:00:13;7.73;;;2.80;;
74528;SDS011;63009;52.584;5.932;2022-12-29T01:02:38;6.68;;;2.58;;
74528;SDS011;63009;52.584;5.932;2022-12-29T01:05:04;6.60;;;2.50;;
74528;SDS011;63009;52.584;5.932;2022-12-29T01:07:29;6.80;;;2.10;;
74528;SDS011;63009;52.584;5.932;2022-12-29T01:09:54;6.80;;;2.17;;
74528;SDS011;63009;52.584;5.932;2022-12-29T01:12:34;6.63;;;2.38;;
74528;SDS011;63009;52.584;5.932;2022-12-29T01:15:07;7.68;;;2.63;;
74528;SDS011;63009;52.584;5.932;2022-12-29T01:17:34;7.55;;;2.30;;
74528;SDS011;63009;52.584;5.932;2022-12-29T01:19:59;8.07;;;3.03;;
74528;SDS011;63009;52.584;5.932;2022-12-29T01:22:24;6.20;;;2.30;;
74528;SDS011;63009;52.584;5.932;2022-12-29T01:24:49;6.70;;;2.30;;
74528;SDS011;63009;52.584;5.932;2022-12-29T01:27:15;6.37;;;2.30;;
74528;SDS011;63009;52.584;5.932;2022-12-29T01:29:40;6.30;;;2.27;;
74528;SDS011;63009;52.584;5.932;2022-12-29T01:32:06;6.68;;;2.10;;
74528;SDS011;63009;52.584;5.932;2022-12-29T01:34:31;6.53;;;2.08;;
74528;SDS011;63009;52.584;5.932;2022-12-29T01:36:57;5.73;;;2.00;;
74528;SDS011;63009;52.584;5.932;2022-12-29T01:39:22;6.27;;;2.37;;
74528;SDS011;63009;52.584;5.932;2022-12-29T01:41:47;5.70;;;2.10;;
74528;SDS011;63009;52.584;5.932;2022-12-29T01:50:07;5.85;;;2.10;;
74528;SDS011;63009;52.584;5.932;2022-12-29T01:52:35;6.95;;;2.20;;
74528;SDS011;63009;52.584;5.932;2022-12-29T01:55:07;6.50;;;1.98;;
74528;SDS011;63009;52.584;5.932;2022-12-29T01:57:37;5.57;;;2.15;;
74528;SDS011;63009;52.584;5.932;2022-12-29T02:00:09;6.65;;;2.15;;
74528;SDS011;63009;52.584;5.932;2022-12-29T02:02:37;6.72;;;2.30;;
74528;SDS011;63009;52.584;5.932;2022-12-29T02:05:04;6.03;;;2.25;;
74528;SDS011;63009;52.584;5.932;2022-12-29T02:07:34;6.55;;;2.17;;
74528;SDS011;63009;52.584;5.932;2022-12-29T02:09:59;7.68;;;2.42;;
74528;SDS011;63009;52.584;5.932;2022-12-29T02:12:26;6.32;;;2.03;;
74528;SDS011;63009;52.584;5.932;2022-12-29T02:14:53;8.38;;;2.35;;
74528;SDS011;63009;52.584;5.932;2022-12-29T02:17:32;5.45;;;2.05;;
74528;SDS011;63009;52.584;5.932;2022-12-29T02:20:21;6.63;;;1.90;;
74528;SDS011;63009;52.584;5.932;2022-12-29T02:28:41;6.50;;;1.73;;
74528;SDS011;63009;52.584;5.932;2022-12-29T02:31:36;6.20;;;2.08;;
74528;SDS011;63009;52.584;5.932;2022-12-29T02:39:38;6.75;;;1.85;;
74528;SDS011;63009;52.584;5.932;2022-12-29T02:45:11;6.35;;;1.80;;
74528;SDS011;63009;52.584;5.932;2022-12-29T02:47:51;5.55;;;1.83;;
74528;SDS011;63009;52.584;5.932;2022-12-29T02:50:38;6.65;;;1.80;;
74528;SDS011;63009;52.584;5.932;2022-12-29T02:53:09;6.22;;;2.05;;
74528;SDS011;63009;52.584;5.932;2022-12-29T02:55:39;4.97;;;1.90;;
74528;SDS011;63009;52.584;5.932;2022-12-29T03:00:31;4.70;;;1.63;;
74528;SDS011;63009;52.584;5.932;2022-12-29T03:03:00;6.10;;;1.75;;
74528;SDS011;63009;52.584;5.932;2022-12-29T03:11:25;5.45;;;1.70;;
74528;SDS011;63009;52.584;5.932;2022-12-29T03:14:25;3.83;;;1.33;;
74528;SDS011;63009;52.584;5.932;2022-12-29T03:17:57;6.55;;;1.60;;
74528;SDS011;63009;52.584;5.932;2022-12-29T03:21:06;5.07;;;1.58;;
74528;SDS011;63009;52.584;5.932;2022-12-29T03:23:23;9.15;;;1.92;;
74528;SDS011;63009;52.584;5.932;2022-12-29T03:28:21;5.85;;;1.48;;
74528;SDS011;63009;52.584;5.932;2022-12-29T03:30:50;10.93;;;1.98;;
74528;SDS011;63009;52.584;5.932;2022-12-29T03:33:21;6.37;;;1.87;;
74528;SDS011;63009;52.584;5.932;2022-12-29T03:35:48;8.02;;;1.75;;
74528;SDS011;63009;52.584;5.932;2022-12-29T03:38:19;6.20;;;1.60;;
74528;SDS011;63009;52.584;5.932;2022-12-29T03:40:48;6.32;;;1.50;;
74528;SDS011;63009;52.584;5.932;2022-12-29T03:43:16;6.80;;;1.38;;
74528;SDS011;63009;52.584;5.932;2022-12-29T03:45:42;4.88;;;1.50;;
74528;SDS011;63009;52.584;5.932;2022-12-29T03:48:08;5.40;;;1.40;;
74528;SDS011;63009;52.584;5.932;2022-12-29T03:50:33;6.13;;;1.70;;
74528;SDS011;63009;52.584;5.932;2022-12-29T03:52:58;7.05;;;1.35;;
74528;SDS011;63009;52.584;5.932;2022-12-29T03:55:24;5.17;;;1.20;;
74528;SDS011;63009;52.584;5.932;2022-12-29T03:57:49;5.27;;;1.30;;
74528;SDS011;63009;52.584;5.932;2022-12-29T04:00:14;5.37;;;1.37;;
74528;SDS011;63009;52.584;5.932;2022-12-29T04:02:40;3.70;;;1.08;;
74528;SDS011;63009;52.584;5.932;2022-12-29T04:05:06;5.25;;;1.40;;
74528;SDS011;63009;52.584;5.932;2022-12-29T04:07:31;6.18;;;2.42;;
74528;SDS011;63009;52.584;5.932;2022-12-29T04:09:56;7.37;;;1.90;;
74528;SDS011;63009;52.584;5.932;2022-12-29T04:12:22;6.40;;;1.60;;
74528;SDS011;63009;52.584;5.932;2022-12-29T04:14:47;5.85;;;1.40;;
74528;SDS011;63009;52.584;5.932;2022-12-29T04:17:12;10.13;;;2.10;;
74528;SDS011;63009;52.584;5.932;2022-12-29T04:19:38;7.23;;;1.70;;
74528;SDS011;63009;52.584;5.932;2022-12-29T04:22:03;7.57;;;1.35;;
74528;SDS011;63009;52.584;5.932;2022-12-29T04:24:28;8.67;;;1.70;;
74528;SDS011;63009;52.584;5.932;2022-12-29T04:26:53;7.33;;;1.40;;
74528;SDS011;63009;52.584;5.932;2022-12-29T04:29:19;11.97;;;2.13;;
74528;SDS011;63009;52.584;5.932;2022-12-29T04:31:44;8.50;;;1.48;;
74528;SDS011;63009;52.584;5.932;2022-12-29T04:34:09;9.77;;;1.40;;
74528;SDS011;63009;52.584;5.932;2022-12-29T04:36:35;5.40;;;1.50;;
74528;SDS011;63009;52.584;5.932;2022-12-29T04:39:00;5.70;;;1.00;;
74528;SDS011;63009;52.584;5.932;2022-12-29T04:41:25;8.50;;;1.23;;
74528;SDS011;63009;52.584;5.932;2022-12-29T04:43:51;6.97;;;1.43;;
74528;SDS011;63009;52.584;5.932;2022-12-29T04:46:16;2.73;;;0.90;;
74528;SDS011;63009;52.584;5.932;2022-12-29T04:48:41;6.00;;;1.20;;
74528;SDS011;63009;52.584;5.932;2022-12-29T04:51:07;5.30;;;1.20;;
74528;SDS011;63009;52.584;5.932;2022-12-29T04:53:32;4.50;;;1.10;;
74528;SDS011;63009;52.584;5.932;2022-12-29T04:55:57;7.03;;;1.30;;
74528;SDS011;63009;52.584;5.932;2022-12-29T04:58:23;10.77;;;1.10;;
74528;SDS011;63009;52.584;5.932;2022-12-29T05:00:48;5.90;;;1.17;;
74528;SDS011;63009;52.584;5.932;2022-12-29T05:03:13;3.67;;;1.00;;
74528;SDS011;63009;52.584;5.932;2022-12-29T05:05:39;5.77;;;1.20;;
74528;SDS011;63009;52.584;5.932;2022-12-29T05:08:04;5.85;;;1.30;;
74528;SDS011;63009;52.584;5.932;2022-12-29T05:10:29;4.18;;;1.10;;
74528;SDS011;63009;52.584;5.932;2022-12-29T05:12:55;6.20;;;1.40;;
74528;SDS011;63009;52.584;5.932;2022-12-29T05:15:20;8.07;;;1.40;;
74528;SDS011;63009;52.584;5.932;2022-12-29T05:17:46;4.22;;;1.30;;
74528;SDS011;63009;52.584;5.932;2022-12-29T05:20:11;4.43;;;1.10;;
74528;SDS011;63009;52.584;5.932;2022-12-29T05:22:36;4.97;;;1.20;;
74528;SDS011;63009;52.584;5.932;2022-12-29T05:25:02;4.10;;;1.20;;
74528;SDS011;63009;52.584;5.932;2022-12-29T05:27:27;8.45;;;1.35;;
74528;SDS011;63009;52.584;5.932;2022-12-29T05:29:53;4.05;;;1.17;;
74528;SDS011;63009;52.584;5.932;2022-12-29T05:32:18;4.47;;;1.10;;
74528;SDS011;63009;52.584;5.932;2022-12-29T05:34:44;3.70;;;1.15;;
74528;SDS011;63009;52.584;5.932;2022-12-29T05:37:09;11.83;;;1.27;;
74528;SDS011;63009;52.584;5.932;2022-12-29T05:39:34;8.55;;;1.33;;
74528;SDS011;63009;52.584;5.932;2022-12-29T05:42:00;8.83;;;1.60;;
74528;SDS011;63009;52.584;5.932;2022-12-29T05:44:25;6.07;;;1.53;;
74528;SDS011;63009;52.584;5.932;2022-12-29T05:46:53;9.40;;;1.55;;
74528;SDS011;63009;52.584;5.932;2022-12-29T05:49:18;7.63;;;1.60;;
74528;SDS011;63009;52.584;5.932;2022-12-29T05:51:44;8.32;;;1.38;;
74528;SDS011;63009;52.584;5.932;2022-12-29T05:54:09;6.50;;;1.42;;
74528;SDS011;63009;52.584;5.932;2022-12-29T05:56:34;8.93;;;1.60;;
74528;SDS011;63009;52.584;5.932;2022-12-29T05:59:00;5.07;;;1.63;;
74528;SDS011;63009;52.584;5.932;2022-12-29T06:01:25;6.80;;;1.10;;
74528;SDS011;63009;52.584;5.932;2022-12-29T06:03:50;10.37;;;1.37;;
74528;SDS011;63009;52.584;5.932;2022-12-29T06:06:15;8.00;;;1.77;;
74528;SDS011;63009;52.584;5.932;2022-12-29T06:08:41;9.15;;;1.38;;
74528;SDS011;63009;52.584;5.932;2022-12-29T06:11:06;5.32;;;1.10;;
74528;SDS011;63009;52.584;5.932;2022-12-29T06:13:32;6.78;;;1.20;;
74528;SDS011;63009;52.584;5.932;2022-12-29T06:15:57;9.37;;;2.23;;
74528;SDS011;63009;52.584;5.932;2022-12-29T06:18:22;8.77;;;1.47;;
74528;SDS011;63009;52.584;5.932;2022-12-29T06:20:48;7.90;;;1.70;;
74528;SDS011;63009;52.584;5.932;2022-12-29T06:23:13;5.05;;;1.20;;
74528;SDS011;63009;52.584;5.932;2022-12-29T06:25:38;8.98;;;1.30;;
74528;SDS011;63009;52.584;5.932;2022-12-29T06:28:04;7.47;;;1.85;;
74528;SDS011;63009;52.584;5.932;2022-12-29T06:30:32;6.50;;;1.40;;
74528;SDS011;63009;52.584;5.932;2022-12-29T06:32:58;5.22;;;1.20;;
74528;SDS011;63009;52.584;5.932;2022-12-29T06:35:24;9.70;;;2.10;;
74528;SDS011;63009;52.584;5.932;2022-12-29T06:37:49;6.80;;;1.85;;
74528;SDS011;63009;52.584;5.932;2022-12-29T06:40:15;9.68;;;1.83;;
74528;SDS011;63009;52.584;5.932;2022-12-29T06:42:40;10.57;;;2.47;;
74528;SDS011;63009;52.584;5.932;2022-12-29T06:45:05;10.60;;;1.40;;
74528;SDS011;63009;52.584;5.932;2022-12-29T06:47:32;11.88;;;1.65;;
74528;SDS011;63009;52.584;5.932;2022-12-29T06:49:57;9.82;;;1.80;;
74528;SDS011;63009;52.584;5.932;2022-12-29T06:52:23;8.50;;;1.50;;
74528;SDS011;63009;52.584;5.932;2022-12-29T06:54:49;13.35;;;2.35;;
74528;SDS011;63009;52.584;5.932;2022-12-29T06:57:14;9.95;;;1.80;;
74528;SDS011;63009;52.584;5.932;2022-12-29T06:59:39;12.30;;;1.33;;
74528;SDS011;63009;52.584;5.932;2022-12-29T07:02:05;5.63;;;1.20;;
74528;SDS011;63009;52.584;5.932;2022-12-29T07:04:30;6.65;;;1.27;;
74528;SDS011;63009;52.584;5.932;2022-12-29T07:06:55;12.10;;;2.33;;
74528;SDS011;63009;52.584;5.932;2022-12-29T07:09:21;15.07;;;2.97;;
74528;SDS011;63009;52.584;5.932;2022-12-29T07:11:46;9.10;;;2.10;;
74528;SDS011;63009;52.584;5.932;2022-12-29T07:14:11;12.20;;;1.90;;
74528;SDS011;63009;52.584;5.932;2022-12-29T07:16:37;9.98;;;1.73;;
74528;SDS011;63009;52.584;5.932;2022-12-29T07:19:02;10.05;;;1.70;;
74528;SDS011;63009;52.584;5.932;2022-12-29T07:21:28;6.00;;;2.00;;
74528;SDS011;63009;52.584;5.932;2022-12-29T07:23:53;8.07;;;1.70;;
74528;SDS011;63009;52.584;5.932;2022-12-29T07:26:19;7.00;;;1.88;;
74528;SDS011;63009;52.584;5.932;2022-12-29T07:28:44;6.25;;;1.40;;
74528;SDS011;63009;52.584;5.932;2022-12-29T07:31:20;9.82;;;1.77;;
74528;SDS011;63009;52.584;5.932;2022-12-29T07:33:46;9.02;;;1.40;;
74528;SDS011;63009;52.584;5.932;2022-12-29T07:36:13;11.05;;;1.92;;
74528;SDS011;63009;52.584;5.932;2022-12-29T07:38:39;10.65;;;1.33;;
74528;SDS011;63009;52.584;5.932;2022-12-29T07:41:05;12.40;;;1.85;;
74528;SDS011;63009;52.584;5.932;2022-12-29T07:43:30;11.35;;;2.33;;
74528;SDS011;63009;52.584;5.932;2022-12-29T07:45:55;9.43;;;1.70;;
74528;SDS011;63009;52.584;5.932;2022-12-29T07:48:21;9.50;;;2.03;;
74528;SDS011;63009;52.584;5.932;2022-12-29T07:50:46;12.13;;;1.70;;
74528;SDS011;63009;52.584;5.932;2022-12-29T07:53:12;12.43;;;1.90;;
74528;SDS011;63009;52.584;5.932;2022-12-29T07:55:37;10.77;;;1.75;;
74528;SDS011;63009;52.584;5.932;2022-12-29T07:58:03;11.23;;;1.58;;
74528;SDS011;63009;52.584;5.932;2022-12-29T08:00:28;15.70;;;2.22;;
74528;SDS011;63009;52.584;5.932;2022-12-29T08:02:53;9.18;;;1.40;;
74528;SDS011;63009;52.584;5.932;2022-12-29T08:05:19;12.90;;;1.77;;
74528;SDS011;63009;52.584;5.932;2022-12-29T08:07:44;11.27;;;1.50;;
74528;SDS011;63009;52.584;5.932;2022-12-29T08:10:11;8.55;;;1.90;;
74528;SDS011;63009;52.584;5.932;2022-12-29T08:12:37;10.32;;;1.63;;
74528;SDS011;63009;52.584;5.932;2022-12-29T08:15:03;10.77;;;1.83;;
74528;SDS011;63009;52.584;5.932;2022-12-29T08:17:29;8.35;;;1.75;;
74528;SDS011;63009;52.584;5.932;2022-12-29T08:19:54;9.70;;;1.33;;
74528;SDS011;63009;52.584;5.932;2022-12-29T08:22:19;12.17;;;2.43;;
74528;SDS011;63009;52.584;5.932;2022-12-29T08:24:44;9.67;;;1.87;;
74528;SDS011;63009;52.584;5.932;2022-12-29T08:27:10;10.20;;;2.20;;
74528;SDS011;63009;52.584;5.932;2022-12-29T08:29:35;8.33;;;1.50;;
74528;SDS011;63009;52.584;5.932;2022-12-29T08:32:00;6.67;;;1.37;;
74528;SDS011;63009;52.584;5.932;2022-12-29T08:34:25;10.67;;;1.77;;
74528;SDS011;63009;52.584;5.932;2022-12-29T08:36:51;10.33;;;1.27;;
74528;SDS011;63009;52.584;5.932;2022-12-29T08:39:16;8.90;;;1.53;;
74528;SDS011;63009;52.584;5.932;2022-12-29T08:41:41;9.68;;;2.17;;
74528;SDS011;63009;52.584;5.932;2022-12-29T08:44:07;12.70;;;2.07;;
74528;SDS011;63009;52.584;5.932;2022-12-29T08:46:32;9.77;;;1.73;;
74528;SDS011;63009;52.584;5.932;2022-12-29T08:48:58;7.63;;;1.50;;
74528;SDS011;63009;52.584;5.932;2022-12-29T08:51:23;11.33;;;2.00;;
74528;SDS011;63009;52.584;5.932;2022-12-29T08:53:48;7.40;;;1.57;;
74528;SDS011;63009;52.584;5.932;2022-12-29T08:56:14;10.20;;;1.63;;
74528;SDS011;63009;52.584;5.932;2022-12-29T08:58:39;11.68;;;2.22;;
74528;SDS011;63009;52.584;5.932;2022-12-29T09:01:05;13.55;;;2.03;;
74528;SDS011;63009;52.584;5.932;2022-12-29T09:03:30;13.25;;;2.13;;
74528;SDS011;63009;52.584;5.932;2022-12-29T09:05:56;8.77;;;1.70;;
74528;SDS011;63009;52.584;5.932;2022-12-29T09:08:21;11.10;;;2.13;;
74528;SDS011;63009;52.584;5.932;2022-12-29T09:10:47;8.02;;;1.60;;
74528;SDS011;63009;52.584;5.932;2022-12-29T09:13:13;8.27;;;1.92;;
74528;SDS011;63009;52.584;5.932;2022-12-29T09:15:39;12.80;;;2.92;;
74528;SDS011;63009;52.584;5.932;2022-12-29T09:18:06;9.10;;;1.75;;
74528;SDS011;63009;52.584;5.932;2022-12-29T09:20:32;9.55;;;1.90;;
74528;SDS011;63009;52.584;5.932;2022-12-29T09:22:57;9.02;;;1.95;;
74528;SDS011;63009;52.584;5.932;2022-12-29T09:25:23;9.45;;;1.92;;
74528;SDS011;63009;52.584;5.932;2022-12-29T09:27:49;10.00;;;2.22;;
74528;SDS011;63009;52.584;5.932;2022-12-29T09:30:17;9.25;;;1.90;;
74528;SDS011;63009;52.584;5.932;2022-12-29T09:32:43;13.02;;;1.83;;
74528;SDS011;63009;52.584;5.932;2022-12-29T09:35:08;5.03;;;1.57;;
74528;SDS011;63009;52.584;5.932;2022-12-29T09:37:33;13.10;;;2.03;;
74528;SDS011;63009;52.584;5.932;2022-12-29T09:39:58;9.83;;;2.00;;
74528;SDS011;63009;52.584;5.932;2022-12-29T09:45:18;9.20;;;1.73;;
74528;SDS011;63009;52.584;5.932;2022-12-29T09:47:52;12.18;;;2.20;;
74528;SDS011;63009;52.584;5.932;2022-12-29T09:50:25;10.38;;;1.70;;
74528;SDS011;63009;52.584;5.932;2022-12-29T09:55:39;10.23;;;1.50;;
74528;SDS011;63009;52.584;5.932;2022-12-29T10:00:56;11.90;;;2.15;;
74528;SDS011;63009;52.584;5.932;2022-12-29T10:03:32;5.40;;;1.55;;
74528;SDS011;63009;52.584;5.932;2022-12-29T10:06:10;13.77;;;1.70;;
74528;SDS011;63009;52.584;5.932;2022-12-29T10:08:41;11.20;;;1.85;;
74528;SDS011;63009;52.584;5.932;2022-12-29T10:19:50;13.90;;;1.98;;
74528;SDS011;63009;52.584;5.932;2022-12-29T10:25:20;8.93;;;1.20;;
74528;SDS011;63009;52.584;5.932;2022-12-29T10:27:48;9.70;;;1.60;;
74528;SDS011;63009;52.584;5.932;2022-12-29T10:30:15;10.05;;;2.45;;
74528;SDS011;63009;52.584;5.932;2022-12-29T10:32:43;7.18;;;1.73;;
74528;SDS011;63009;52.584;5.932;2022-12-29T10:35:37;9.73;;;2.03;;
74528;SDS011;63009;52.584;5.932;2022-12-29T10:43:46;7.00;;;1.70;;
74528;SDS011;63009;52.584;5.932;2022-12-29T10:49:00;8.70;;;1.63;;
74528;SDS011;63009;52.584;5.932;2022-12-29T10:51:33;9.13;;;1.85;;
74528;SDS011;63009;52.584;5.932;2022-12-29T10:56:40;12.13;;;2.67;;
74528;SDS011;63009;52.584;5.932;2022-12-29T10:59:16;8.05;;;1.98;;
74528;SDS011;63009;52.584;5.932;2022-12-29T11:06:48;8.20;;;1.67;;
74528;SDS011;63009;52.584;5.932;2022-12-29T11:09:15;10.57;;;2.20;;
74528;SDS011;63009;52.584;5.932;2022-12-29T11:11:44;10.80;;;2.45;;
74528;SDS011;63009;52.584;5.932;2022-12-29T11:14:11;11.63;;;2.63;;
74528;SDS011;63009;52.584;5.932;2022-12-29T11:16:39;8.90;;;2.10;;
74528;SDS011;63009;52.584;5.932;2022-12-29T11:19:09;17.35;;;2.45;;
74528;SDS011;63009;52.584;5.932;2022-12-29T11:21:45;9.85;;;2.97;;
74528;SDS011;63009;52.584;5.932;2022-12-29T11:26:50;13.73;;;2.00;;
74528;SDS011;63009;52.584;5.932;2022-12-29T11:29:22;12.38;;;2.50;;
74528;SDS011;63009;52.584;5.932;2022-12-29T11:31:57;12.27;;;2.10;;
74528;SDS011;63009;52.584;5.932;2022-12-29T11:36:58;9.98;;;2.78;;
74528;SDS011;63009;52.584;5.932;2022-12-29T11:42:16;11.40;;;2.75;;
74528;SDS011;63009;52.584;5.932;2022-12-29T11:44:48;14.55;;;2.53;;
74528;SDS011;63009;52.584;5.932;2022-12-29T11:49:57;12.60;;;2.10;;
74528;SDS011;63009;52.584;5.932;2022-12-29T11:52:29;15.18;;;2.65;;
74528;SDS011;63009;52.584;5.932;2022-12-29T11:55:00;11.70;;;2.40;;
74528;SDS011;63009;52.584;5.932;2022-12-29T11:57:28;14.30;;;2.00;;
74528;SDS011;63009;52.584;5.932;2022-12-29T11:59:54;13.43;;;2.13;;
74528;SDS011;63009;52.584;5.932;2022-12-29T12:04:56;12.32;;;2.85;;
74528;SDS011;63009;52.584;5.932;2022-12-29T12:07:43;13.55;;;3.85;;
74528;SDS011;63009;52.584;5.932;2022-12-29T12:10:19;14.75;;;2.67;;
74528;SDS011;63009;52.584;5.932;2022-12-29T12:12:53;15.45;;;2.35;;
74528;SDS011;63009;52.584;5.932;2022-12-29T12:15:36;11.32;;;2.30;;
74528;SDS011;63009;52.584;5.932;2022-12-29T12:18:09;14.13;;;2.33;;
74528;SDS011;63009;52.584;5.932;2022-12-29T12:20:49;15.20;;;2.50;;
74528;SDS011;63009;52.584;5.932;2022-12-29T12:26:34;13.77;;;2.45;;
74528;SDS011;63009;52.584;5.932;2022-12-29T12:29:08;15.18;;;2.70;;
74528;SDS011;63009;52.584;5.932;2022-12-29T12:34:26;13.15;;;2.38;;
74528;SDS011;63009;52.584;5.932;2022-12-29T12:37:02;16.77;;;2.42;;
74528;SDS011;63009;52.584;5.932;2022-12-29T12:39:32;14.25;;;2.38;;
74528;SDS011;63009;52.584;5.932;2022-12-29T12:50:55;10.90;;;2.10;;
74528;SDS011;63009;52.584;5.932;2022-12-29T12:56:03;14.38;;;3.90;;
74528;SDS011;63009;52.584;5.932;2022-12-29T12:58:59;16.10;;;2.60;;
74528;SDS011;63009;52.584;5.932;2022-12-29T13:07:04;14.07;;;2.45;;
74528;SDS011;63009;52.584;5.932;2022-12-29T13:12:30;12.27;;;2.50;;
74528;SDS011;63009;52.584;5.932;2022-12-29T13:17:36;8.93;;;1.88;;
74528;SDS011;63009;52.584;5.932;2022-12-29T13:25:47;11.18;;;2.03;;
74528;SDS011;63009;52.584;5.932;2022-12-29T13:30:59;12.90;;;2.50;;
74528;SDS011;63009;52.584;5.932;2022-12-29T13:36:23;10.07;;;2.40;;
74528;SDS011;63009;52.584;5.932;2022-12-29T13:41:33;9.32;;;1.77;;
74528;SDS011;63009;52.584;5.932;2022-12-29T13:44:04;11.00;;;1.83;;
74528;SDS011;63009;52.584;5.932;2022-12-29T13:46:33;9.80;;;1.90;;
74528;SDS011;63009;52.584;5.932;2022-12-29T13:49:08;9.82;;;1.77;;
74528;SDS011;63009;52.584;5.932;2022-12-29T13:52:11;9.55;;;1.55;;
74528;SDS011;63009;52.584;5.932;2022-12-29T13:55:05;10.10;;;1.88;;
74528;SDS011;63009;52.584;5.932;2022-12-29T14:00:21;7.47;;;1.23;;
74528;SDS011;63009;52.584;5.932;2022-12-29T14:06:05;8.30;;;2.13;;
74528;SDS011;63009;52.584;5.932;2022-12-29T14:08:36;12.00;;;1.60;;
74528;SDS011;63009;52.584;5.932;2022-12-29T14:11:05;11.07;;;1.58;;
74528;SDS011;63009;52.584;5.932;2022-12-29T14:13:33;11.07;;;1.85;;
74528;SDS011;63009;52.584;5.932;2022-12-29T14:16:05;6.78;;;1.50;;
74528;SDS011;63009;52.584;5.932;2022-12-29T14:18:31;11.13;;;1.60;;
74528;SDS011;63009;52.584;5.932;2022-12-29T14:23:45;12.80;;;1.88;;
74528;SDS011;63009;52.584;5.932;2022-12-29T14:26:33;11.05;;;2.05;;
74528;SDS011;63009;52.584;5.932;2022-12-29T14:31:50;11.43;;;1.60;;
74528;SDS011;63009;52.584;5.932;2022-12-29T14:34:38;14.88;;;2.28;;
74528;SDS011;63009;52.584;5.932;2022-12-29T14:37:21;10.02;;;2.35;;
74528;SDS011;63009;52.584;5.932;2022-12-29T14:40:02;10.70;;;1.85;;
74528;SDS011;63009;52.584;5.932;2022-12-29T14:42:30;9.70;;;1.80;;
74528;SDS011;63009;52.584;5.932;2022-12-29T14:45:05;8.68;;;2.38;;
74528;SDS011;63009;52.584;5.932;2022-12-29T14:47:34;12.75;;;2.53;;
74528;SDS011;63009;52.584;5.932;2022-12-29T14:52:53;8.98;;;1.80;;
74528;SDS011;63009;52.584;5.932;2022-12-29T14:55:31;9.05;;;2.25;;
74528;SDS011;63009;52.584;5.932;2022-12-29T14:58:15;13.23;;;1.95;;
74528;SDS011;63009;52.584;5.932;2022-12-29T15:05:43;13.82;;;1.73;;
74528;SDS011;63009;52.584;5.932;2022-12-29T15:08:29;8.98;;;1.40;;
74528;SDS011;63009;52.584;5.932;2022-12-29T15:11:03;7.75;;;1.33;;
74528;SDS011;63009;52.584;5.932;2022-12-29T15:13:36;11.70;;;2.03;;
74528;SDS011;63009;52.584;5.932;2022-12-29T15:16:03;7.00;;;1.17;;
74528;SDS011;63009;52.584;5.932;2022-12-29T15:18:30;7.97;;;1.67;;
74528;SDS011;63009;52.584;5.932;2022-12-29T15:20:59;13.20;;;2.28;;
74528;SDS011;63009;52.584;5.932;2022-12-29T15:23:26;9.20;;;2.13;;
74528;SDS011;63009;52.584;5.932;2022-12-29T15:28:20;12.50;;;3.08;;
74528;SDS011;63009;52.584;5.932;2022-12-29T15:31:01;8.70;;;2.20;;
74528;SDS011;63009;52.584;5.932;2022-12-29T15:33:28;9.73;;;1.67;;
74528;SDS011;63009;52.584;5.932;2022-12-29T15:35:55;7.03;;;1.77;;
74528;SDS011;63009;52.584;5.932;2022-12-29T15:41:00;8.30;;;1.67;;
74528;SDS011;63009;52.584;5.932;2022-12-29T15:46:14;7.88;;;1.60;;
74528;SDS011;63009;52.584;5.932;2022-12-29T15:48:39;8.60;;;1.70;;
74528;SDS011;63009;52.584;5.932;2022-12-29T15:51:15;7.57;;;1.50;;
74528;SDS011;63009;52.584;5.932;2022-12-29T15:53:46;7.55;;;1.88;;
74528;SDS011;63009;52.584;5.932;2022-12-29T15:56:13;7.97;;;1.70;;
74528;SDS011;63009;52.584;5.932;2022-12-29T15:58:40;8.52;;;1.60;;
74528;SDS011;63009;52.584;5.932;2022-12-29T16:01:16;6.95;;;1.38;;
74528;SDS011;63009;52.584;5.932;2022-12-29T16:03:49;5.28;;;1.40;;
74528;SDS011;63009;52.584;5.932;2022-12-29T16:09:15;6.15;;;1.50;;
74528;SDS011;63009;52.584;5.932;2022-12-29T16:11:52;7.20;;;1.40;;
74528;SDS011;63009;52.584;5.932;2022-12-29T16:14:21;9.25;;;1.90;;
74528;SDS011;63009;52.584;5.932;2022-12-29T16:16:58;9.93;;;2.67;;
74528;SDS011;63009;52.584;5.932;2022-12-29T16:19:28;7.95;;;1.55;;
74528;SDS011;63009;52.584;5.932;2022-12-29T16:21:58;8.30;;;1.63;;
74528;SDS011;63009;52.584;5.932;2022-12-29T16:24:25;9.35;;;2.78;;
74528;SDS011;63009;52.584;5.932;2022-12-29T16:27:07;13.85;;;3.90;;
74528;SDS011;63009;52.584;5.932;2022-12-29T16:29:39;8.27;;;2.20;;
74528;SDS011;63009;52.584;5.932;2022-12-29T16:32:18;10.63;;;2.80;;
74528;SDS011;63009;52.584;5.932;2022-12-29T16:34:52;9.93;;;2.40;;
74528;SDS011;63009;52.584;5.932;2022-12-29T16:37:32;8.70;;;1.95;;
74528;SDS011;63009;52.584;5.932;2022-12-29T16:42:48;12.48;;;2.92;;
74528;SDS011;63009;52.584;5.932;2022-12-29T16:47:54;10.90;;;2.65;;
74528;SDS011;63009;52.584;5.932;2022-12-29T16:50:44;9.10;;;2.30;;
74528;SDS011;63009;52.584;5.932;2022-12-29T16:53:19;10.68;;;2.53;;
74528;SDS011;63009;52.584;5.932;2022-12-29T16:55:49;11.23;;;2.33;;
74528;SDS011;63009;52.584;5.932;2022-12-29T16:58:18;11.23;;;3.15;;
74528;SDS011;63009;52.584;5.932;2022-12-29T17:00:56;11.45;;;3.45;;
74528;SDS011;63009;52.584;5.932;2022-12-29T17:03:26;12.15;;;2.65;;
74528;SDS011;63009;52.584;5.932;2022-12-29T17:05:57;7.95;;;2.30;;
74528;SDS011;63009;52.584;5.932;2022-12-29T17:08:23;9.67;;;2.30;;
74528;SDS011;63009;52.584;5.932;2022-12-29T17:10:49;10.52;;;2.30;;
74528;SDS011;63009;52.584;5.932;2022-12-29T17:16:01;10.13;;;4.55;;
74528;SDS011;63009;52.584;5.932;2022-12-29T17:18:26;12.48;;;6.07;;
74528;SDS011;63009;52.584;5.932;2022-12-29T17:20:51;10.10;;;2.10;;
74528;SDS011;63009;52.584;5.932;2022-12-29T17:23:17;11.33;;;2.50;;
74528;SDS011;63009;52.584;5.932;2022-12-29T17:25:42;10.70;;;2.97;;
74528;SDS011;63009;52.584;5.932;2022-12-29T17:28:13;13.70;;;2.85;;
74528;SDS011;63009;52.584;5.932;2022-12-29T17:30:45;10.30;;;3.30;;
74528;SDS011;63009;52.584;5.932;2022-12-29T17:33:14;11.05;;;3.15;;
74528;SDS011;63009;52.584;5.932;2022-12-29T17:35:42;11.93;;;2.70;;
74528;SDS011;63009;52.584;5.932;2022-12-29T17:38:15;11.25;;;2.97;;